sensor_id;sensor_type;location;lat;lon;timestamp;pressure;altitude;pressure_sealevel;temperature;humidity
69524;BME280;56723;42.694;23.286;2023-03-08T00:02:17;94258.56;;;6.34;65.64
69524;BME280;56723;42.694;23.286;2023-03-08T00:04:44;94266.13;;;6.28;66.03
69524;BME280;56723;42.694;23.286;2023-03-08T00:07:11;94272.84;;;6.20;66.32
69524;BME280;56723;42.694;23.286;2023-03-08T00:09:38;94275.56;;;6.19;66.43
69524;BME280;56723;42.694;23.286;2023-03-08T00:12:05;94273.63;;;6.13;66.65
69524;BME280;56723;42.694;23.286;2023-03-08T00:14:33;94271.53;;;6.08;66.26
69524;BME280;56723;42.694;23.286;2023-03-08T00:17:00;94263.00;;;6.08;66.83
69524;BME280;56723;42.694;23.286;2023-03-08T00:19:28;94279.41;;;6.07;66.76
69524;BME280;56723;42.694;23.286;2023-03-08T00:21:55;94270.84;;;5.98;67.22
69524;BME280;56723;42.694;23.286;2023-03-08T00:24:22;94271.00;;;5.97;67.21
69524;BME280;56723;42.694;23.286;2023-03-08T00:26:49;94280.63;;;5.95;67.52
69524;BME280;56723;42.694;23.286;2023-03-08T00:29:16;94266.19;;;5.94;67.70
69524;BME280;56723;42.694;23.286;2023-03-08T00:31:43;94268.91;;;5.92;67.68
69524;BME280;56723;42.694;23.286;2023-03-08T00:34:10;94271.63;;;5.90;68.02
69524;BME280;56723;42.694;23.286;2023-03-08T00:36:39;94288.97;;;5.88;68.62
69524;BME280;56723;42.694;23.286;2023-03-08T00:39:07;94258.13;;;5.54;69.48
69524;BME280;56723;42.694;23.286;2023-03-08T00:41:36;94260.84;;;5.53;69.95
69524;BME280;56723;42.694;23.286;2023-03-08T00:44:03;94257.59;;;5.51;70.36
69524;BME280;56723;42.694;23.286;2023-03-08T00:46:30;94262.69;;;5.43;70.81
69524;BME280;56723;42.694;23.286;2023-03-08T00:48:56;94249.34;;;5.39;71.19
69524;BME280;56723;42.694;23.286;2023-03-08T00:51:24;94274.72;;;5.42;71.49
69524;BME280;56723;42.694;23.286;2023-03-08T00:53:51;94268.13;;;5.40;71.15
69524;BME280;56723;42.694;23.286;2023-03-08T00:56:20;94274.06;;;5.40;71.84
69524;BME280;56723;42.694;23.286;2023-03-08T00:58:46;94275.81;;;5.32;72.13
69524;BME280;56723;42.694;23.286;2023-03-08T01:01:16;94279.31;;;5.31;71.85
69524;BME280;56723;42.694;23.286;2023-03-08T01:03:45;94276.91;;;5.29;71.19
69524;BME280;56723;42.694;23.286;2023-03-08T01:06:13;94262.81;;;5.33;71.55
69524;BME280;56723;42.694;23.286;2023-03-08T01:08:41;94277.13;;;5.36;71.61
69524;BME280;56723;42.694;23.286;2023-03-08T01:11:20;94266.28;;;5.24;72.09
69524;BME280;56723;42.694;23.286;2023-03-08T01:13:48;94276.75;;;5.31;71.59
69524;BME280;56723;42.694;23.286;2023-03-08T01:16:26;94270.47;;;5.25;72.71
69524;BME280;56723;42.694;23.286;2023-03-08T01:18:54;94268.16;;;5.14;72.81
69524;BME280;56723;42.694;23.286;2023-03-08T01:21:22;94274.53;;;5.10;72.94
69524;BME280;56723;42.694;23.286;2023-03-08T01:23:50;94280.84;;;5.15;72.96
69524;BME280;56723;42.694;23.286;2023-03-08T01:26:22;94272.78;;;5.10;73.12
69524;BME280;56723;42.694;23.286;2023-03-08T01:28:49;94261.84;;;5.08;73.29
69524;BME280;56723;42.694;23.286;2023-03-08T01:31:29;94277.91;;;5.10;73.75
69524;BME280;56723;42.694;23.286;2023-03-08T01:33:58;94287.66;;;5.07;73.73
69524;BME280;56723;42.694;23.286;2023-03-08T01:36:26;94280.41;;;5.02;73.31
69524;BME280;56723;42.694;23.286;2023-03-08T01:38:53;94273.38;;;5.04;73.30
69524;BME280;56723;42.694;23.286;2023-03-08T01:41:24;94283.63;;;5.04;73.70
69524;BME280;56723;42.694;23.286;2023-03-08T01:43:52;94284.72;;;5.02;73.75
69524;BME280;56723;42.694;23.286;2023-03-08T01:49:05;94286.22;;;4.86;74.41
69524;BME280;56723;42.694;23.286;2023-03-08T01:54:34;94291.44;;;4.77;75.25
69524;BME280;56723;42.694;23.286;2023-03-08T01:57:07;94288.88;;;4.77;75.06
69524;BME280;56723;42.694;23.286;2023-03-08T01:59:36;94276.34;;;4.74;75.23
69524;BME280;56723;42.694;23.286;2023-03-08T02:02:05;94289.19;;;4.74;75.52
69524;BME280;56723;42.694;23.286;2023-03-08T02:04:34;94283.66;;;4.69;75.91
69524;BME280;56723;42.694;23.286;2023-03-08T02:07:01;94276.41;;;4.64;75.77
69524;BME280;56723;42.694;23.286;2023-03-08T02:09:28;94293.94;;;4.69;75.95
69524;BME280;56723;42.694;23.286;2023-03-08T02:12:00;94276.22;;;4.58;76.11
69524;BME280;56723;42.694;23.286;2023-03-08T02:14:29;94281.34;;;4.58;76.44
69524;BME280;56723;42.694;23.286;2023-03-08T02:16:56;94274.59;;;4.57;75.82
69524;BME280;56723;42.694;23.286;2023-03-08T02:19:31;94282.94;;;4.59;75.96
69524;BME280;56723;42.694;23.286;2023-03-08T02:22:07;94271.22;;;4.38;76.54
69524;BME280;56723;42.694;23.286;2023-03-08T02:24:34;94287.00;;;4.43;76.48
69524;BME280;56723;42.694;23.286;2023-03-08T02:27:17;94291.44;;;4.41;76.68
69524;BME280;56723;42.694;23.286;2023-03-08T02:29:45;94269.03;;;4.26;77.13
69524;BME280;56723;42.694;23.286;2023-03-08T02:32:14;94283.94;;;4.30;77.28
69524;BME280;56723;42.694;23.286;2023-03-08T02:34:42;94296.63;;;4.32;77.43
69524;BME280;56723;42.694;23.286;2023-03-08T02:37:11;94295.16;;;4.29;77.27
69524;BME280;56723;42.694;23.286;2023-03-08T02:39:37;94293.25;;;4.31;76.97
69524;BME280;56723;42.694;23.286;2023-03-08T02:42:04;94299.34;;;4.30;77.66
69524;BME280;56723;42.694;23.286;2023-03-08T02:44:31;94304.13;;;4.25;77.77
69524;BME280;56723;42.694;23.286;2023-03-08T02:46:58;94308.28;;;4.26;77.76
69524;BME280;56723;42.694;23.286;2023-03-08T02:49:25;94308.88;;;4.20;77.87
69524;BME280;56723;42.694;23.286;2023-03-08T02:51:52;94301.06;;;4.12;77.97
69524;BME280;56723;42.694;23.286;2023-03-08T02:54:19;94311.59;;;4.09;78.79
69524;BME280;56723;42.694;23.286;2023-03-08T02:56:46;94310.75;;;3.91;79.84
69524;BME280;56723;42.694;23.286;2023-03-08T02:59:13;94313.22;;;3.82;80.42
69524;BME280;56723;42.694;23.286;2023-03-08T03:01:42;94312.09;;;3.67;81.38
69524;BME280;56723;42.694;23.286;2023-03-08T03:04:09;94308.28;;;3.71;81.64
69524;BME280;56723;42.694;23.286;2023-03-08T03:06:36;94311.91;;;3.78;81.84
69524;BME280;56723;42.694;23.286;2023-03-08T03:09:07;94320.91;;;3.82;81.68
69524;BME280;56723;42.694;23.286;2023-03-08T03:11:35;94317.28;;;3.75;81.89
69524;BME280;56723;42.694;23.286;2023-03-08T03:14:02;94315.25;;;3.79;81.59
69524;BME280;56723;42.694;23.286;2023-03-08T03:16:35;94307.56;;;3.79;81.28
69524;BME280;56723;42.694;23.286;2023-03-08T03:19:02;94314.56;;;3.87;81.42
69524;BME280;56723;42.694;23.286;2023-03-08T03:21:29;94327.66;;;3.83;81.56
69524;BME280;56723;42.694;23.286;2023-03-08T03:23:56;94324.69;;;3.78;81.46
69524;BME280;56723;42.694;23.286;2023-03-08T03:26:31;94323.75;;;3.79;81.36
69524;BME280;56723;42.694;23.286;2023-03-08T03:28:58;94319.31;;;3.81;81.33
69524;BME280;56723;42.694;23.286;2023-03-08T03:31:29;94330.22;;;3.83;81.64
69524;BME280;56723;42.694;23.286;2023-03-08T03:33:57;94328.59;;;3.82;81.68
69524;BME280;56723;42.694;23.286;2023-03-08T03:36:26;94341.28;;;3.84;81.60
69524;BME280;56723;42.694;23.286;2023-03-08T03:38:54;94333.88;;;3.81;81.51
69524;BME280;56723;42.694;23.286;2023-03-08T03:41:22;94332.91;;;3.82;81.71
69524;BME280;56723;42.694;23.286;2023-03-08T03:43:58;94335.91;;;3.77;81.96
69524;BME280;56723;42.694;23.286;2023-03-08T03:46:25;94336.84;;;3.76;81.81
69524;BME280;56723;42.694;23.286;2023-03-08T03:48:55;94341.69;;;3.79;82.11
69524;BME280;56723;42.694;23.286;2023-03-08T03:51:25;94336.72;;;3.78;82.21
69524;BME280;56723;42.694;23.286;2023-03-08T03:54:09;94338.47;;;3.77;82.27
69524;BME280;56723;42.694;23.286;2023-03-08T03:56:38;94320.84;;;3.65;81.83
69524;BME280;56723;42.694;23.286;2023-03-08T03:59:06;94337.13;;;3.73;82.24
69524;BME280;56723;42.694;23.286;2023-03-08T04:01:33;94345.47;;;3.75;82.30
69524;BME280;56723;42.694;23.286;2023-03-08T04:04:09;94346.44;;;3.74;82.32
69524;BME280;56723;42.694;23.286;2023-03-08T04:06:40;94340.41;;;3.66;82.34
69524;BME280;56723;42.694;23.286;2023-03-08T04:09:13;94347.00;;;3.68;82.86
69524;BME280;56723;42.694;23.286;2023-03-08T04:11:43;94342.28;;;3.64;83.58
69524;BME280;56723;42.694;23.286;2023-03-08T04:14:14;94348.09;;;3.66;84.04
69524;BME280;56723;42.694;23.286;2023-03-08T04:16:43;94332.59;;;3.58;83.68
69524;BME280;56723;42.694;23.286;2023-03-08T04:19:18;94347.56;;;3.62;83.37
69524;BME280;56723;42.694;23.286;2023-03-08T04:21:49;94343.38;;;3.61;83.77
69524;BME280;56723;42.694;23.286;2023-03-08T04:24:20;94345.53;;;3.56;83.72
69524;BME280;56723;42.694;23.286;2023-03-08T05:22:26;94388.16;;;3.38;88.06
69524;BME280;56723;42.694;23.286;2023-03-08T05:24:55;94401.13;;;3.46;88.86
69524;BME280;56723;42.694;23.286;2023-03-08T05:27:24;94407.72;;;3.48;88.15
69524;BME280;56723;42.694;23.286;2023-03-08T05:29:51;94409.03;;;3.53;88.39
69524;BME280;56723;42.694;23.286;2023-03-08T05:32:18;94412.03;;;3.48;88.34
69524;BME280;56723;42.694;23.286;2023-03-08T05:34:46;94421.72;;;3.54;88.44
69524;BME280;56723;42.694;23.286;2023-03-08T05:37:21;94420.50;;;3.58;88.58
69524;BME280;56723;42.694;23.286;2023-03-08T05:39:55;94421.16;;;3.60;88.44
69524;BME280;56723;42.694;23.286;2023-03-08T05:42:23;94419.09;;;3.73;91.78
69524;BME280;56723;42.694;23.286;2023-03-08T05:44:50;94413.63;;;3.68;88.09
69524;BME280;56723;42.694;23.286;2023-03-08T06:14:43;94448.44;;;4.45;85.14
69524;BME280;56723;42.694;23.286;2023-03-08T06:17:13;94445.81;;;4.55;85.27
69524;BME280;56723;42.694;23.286;2023-03-08T06:19:45;94453.56;;;4.72;86.05
69524;BME280;56723;42.694;23.286;2023-03-08T06:22:14;94448.22;;;4.83;83.91
69524;BME280;56723;42.694;23.286;2023-03-08T06:24:42;94457.50;;;4.94;82.89
69524;BME280;56723;42.694;23.286;2023-03-08T06:27:09;94454.38;;;5.18;85.06
69524;BME280;56723;42.694;23.286;2023-03-08T06:29:38;94452.66;;;5.27;81.69
69524;BME280;56723;42.694;23.286;2023-03-08T06:32:05;94451.81;;;5.36;81.60
69524;BME280;56723;42.694;23.286;2023-03-08T06:34:33;94464.41;;;5.47;81.12
69524;BME280;56723;42.694;23.286;2023-03-08T06:37:00;94451.94;;;5.52;81.91
69524;BME280;56723;42.694;23.286;2023-03-08T06:39:27;94460.00;;;5.75;79.04
69524;BME280;56723;42.694;23.286;2023-03-08T06:41:59;94468.56;;;5.83;77.70
69524;BME280;56723;42.694;23.286;2023-03-08T06:44:29;94474.13;;;5.97;77.15
69524;BME280;56723;42.694;23.286;2023-03-08T06:46:56;94473.69;;;6.01;76.19
69524;BME280;56723;42.694;23.286;2023-03-08T06:49:24;94474.88;;;6.07;76.33
69524;BME280;56723;42.694;23.286;2023-03-08T06:51:52;94485.41;;;6.21;75.36
69524;BME280;56723;42.694;23.286;2023-03-08T06:54:19;94480.13;;;6.31;74.61
69524;BME280;56723;42.694;23.286;2023-03-08T06:56:47;94488.78;;;6.48;74.43
69524;BME280;56723;42.694;23.286;2023-03-08T06:59:14;94486.06;;;6.57;73.44
69524;BME280;56723;42.694;23.286;2023-03-08T07:01:41;94498.66;;;6.69;72.75
69524;BME280;56723;42.694;23.286;2023-03-08T07:04:08;94498.06;;;6.75;72.44
69524;BME280;56723;42.694;23.286;2023-03-08T07:06:35;94498.13;;;6.91;71.43
69524;BME280;56723;42.694;23.286;2023-03-08T07:09:02;94502.84;;;7.04;71.41
69524;BME280;56723;42.694;23.286;2023-03-08T07:11:30;94507.91;;;7.21;70.40
69524;BME280;56723;42.694;23.286;2023-03-08T07:13:57;94510.78;;;7.26;72.12
69524;BME280;56723;42.694;23.286;2023-03-08T07:16:25;94507.59;;;7.33;71.60
69524;BME280;56723;42.694;23.286;2023-03-08T07:18:52;94497.09;;;7.26;69.67
69524;BME280;56723;42.694;23.286;2023-03-08T07:21:19;94499.53;;;7.27;70.76
69524;BME280;56723;42.694;23.286;2023-03-08T07:23:46;94496.63;;;7.30;75.07
69524;BME280;56723;42.694;23.286;2023-03-08T07:26:12;94511.81;;;7.50;70.28
69524;BME280;56723;42.694;23.286;2023-03-08T07:28:39;94498.59;;;7.61;70.30
69524;BME280;56723;42.694;23.286;2023-03-08T07:31:09;94508.63;;;7.72;67.91
69524;BME280;56723;42.694;23.286;2023-03-08T07:33:37;94500.88;;;7.72;69.04
69524;BME280;56723;42.694;23.286;2023-03-08T07:36:04;94507.81;;;7.88;71.68
69524;BME280;56723;42.694;23.286;2023-03-08T07:38:31;94500.41;;;8.01;69.68
69524;BME280;56723;42.694;23.286;2023-03-08T07:40:59;94504.72;;;8.17;67.17
69524;BME280;56723;42.694;23.286;2023-03-08T07:43:26;94499.09;;;8.29;67.26
69524;BME280;56723;42.694;23.286;2023-03-08T07:46:01;94498.28;;;8.37;65.50
69524;BME280;56723;42.694;23.286;2023-03-08T07:48:30;94513.09;;;8.59;64.81
69524;BME280;56723;42.694;23.286;2023-03-08T07:51:02;94505.69;;;8.48;63.85
69524;BME280;56723;42.694;23.286;2023-03-08T07:53:37;94504.69;;;8.57;64.79
69524;BME280;56723;42.694;23.286;2023-03-08T07:56:06;94512.44;;;8.65;64.66
69524;BME280;56723;42.694;23.286;2023-03-08T07:58:33;94511.44;;;8.75;64.46
69524;BME280;56723;42.694;23.286;2023-03-08T08:01:10;94512.66;;;8.95;62.94
69524;BME280;56723;42.694;23.286;2023-03-08T08:03:38;94510.72;;;8.97;62.97
69524;BME280;56723;42.694;23.286;2023-03-08T08:06:06;94501.81;;;9.08;62.59
69524;BME280;56723;42.694;23.286;2023-03-08T08:08:33;94490.28;;;9.10;63.04
69524;BME280;56723;42.694;23.286;2023-03-08T08:11:01;94501.25;;;9.20;60.79
69524;BME280;56723;42.694;23.286;2023-03-08T08:13:28;94507.69;;;9.24;60.93
69524;BME280;56723;42.694;23.286;2023-03-08T08:16:01;94507.00;;;9.30;61.91
69524;BME280;56723;42.694;23.286;2023-03-08T08:18:28;94521.50;;;9.40;60.54
69524;BME280;56723;42.694;23.286;2023-03-08T08:21:02;94517.94;;;9.41;62.82
69524;BME280;56723;42.694;23.286;2023-03-08T08:23:30;94521.66;;;9.46;62.49
69524;BME280;56723;42.694;23.286;2023-03-08T08:25:57;94515.25;;;9.57;60.49
69524;BME280;56723;42.694;23.286;2023-03-08T08:28:25;94516.47;;;9.69;58.77
69524;BME280;56723;42.694;23.286;2023-03-08T08:31:00;94511.25;;;9.77;58.63
69524;BME280;56723;42.694;23.286;2023-03-08T08:33:28;94518.56;;;9.96;57.52
69524;BME280;56723;42.694;23.286;2023-03-08T08:35:55;94523.59;;;10.13;57.62
69524;BME280;56723;42.694;23.286;2023-03-08T08:38:24;94512.34;;;10.43;55.01
69524;BME280;56723;42.694;23.286;2023-03-08T08:40:51;94505.59;;;10.71;55.45
69524;BME280;56723;42.694;23.286;2023-03-08T08:43:18;94503.69;;;10.95;53.90
69524;BME280;56723;42.694;23.286;2023-03-08T08:45:47;94506.00;;;11.19;53.35
69524;BME280;56723;42.694;23.286;2023-03-08T08:48:14;94499.56;;;11.30;51.80
69524;BME280;56723;42.694;23.286;2023-03-08T08:50:41;94498.72;;;11.44;51.20
69524;BME280;56723;42.694;23.286;2023-03-08T08:53:08;94503.91;;;11.44;50.68
69524;BME280;56723;42.694;23.286;2023-03-08T08:55:36;94493.91;;;11.41;51.83
69524;BME280;56723;42.694;23.286;2023-03-08T08:58:06;94502.75;;;11.47;50.11
69524;BME280;56723;42.694;23.286;2023-03-08T09:00:33;94504.00;;;11.36;50.53
69524;BME280;56723;42.694;23.286;2023-03-08T09:03:01;94504.81;;;11.36;52.35
69524;BME280;56723;42.694;23.286;2023-03-08T09:05:30;94505.56;;;11.30;51.11
69524;BME280;56723;42.694;23.286;2023-03-08T09:07:58;94510.13;;;11.28;50.87
69524;BME280;56723;42.694;23.286;2023-03-08T09:10:27;94506.47;;;11.08;51.01
69524;BME280;56723;42.694;23.286;2023-03-08T09:12:55;94499.31;;;10.95;52.07
69524;BME280;56723;42.694;23.286;2023-03-08T09:15:24;94505.69;;;10.93;52.82
69524;BME280;56723;42.694;23.286;2023-03-08T09:17:51;94498.91;;;10.92;52.70
69524;BME280;56723;42.694;23.286;2023-03-08T09:20:19;94494.78;;;10.83;52.83
69524;BME280;56723;42.694;23.286;2023-03-08T09:22:48;94500.66;;;10.76;53.74
69524;BME280;56723;42.694;23.286;2023-03-08T09:25:15;94496.13;;;10.79;53.24
69524;BME280;56723;42.694;23.286;2023-03-08T09:27:45;94492.53;;;10.80;53.54
69524;BME280;56723;42.694;23.286;2023-03-08T09:30:13;94488.78;;;10.82;53.33
69524;BME280;56723;42.694;23.286;2023-03-08T09:32:41;94492.19;;;10.97;53.33
69524;BME280;56723;42.694;23.286;2023-03-08T09:35:08;94482.78;;;11.11;52.47
69524;BME280;56723;42.694;23.286;2023-03-08T09:37:35;94489.75;;;11.25;51.81
69524;BME280;56723;42.694;23.286;2023-03-08T09:40:04;94484.69;;;11.38;51.14
69524;BME280;56723;42.694;23.286;2023-03-08T09:42:35;94483.66;;;11.54;51.67
69524;BME280;56723;42.694;23.286;2023-03-08T09:47:50;94479.19;;;12.05;49.73
69524;BME280;56723;42.694;23.286;2023-03-08T09:50:36;94481.94;;;12.25;49.14
69524;BME280;56723;42.694;23.286;2023-03-08T09:53:29;94474.84;;;12.68;48.25
69524;BME280;56723;42.694;23.286;2023-03-08T09:56:03;94461.00;;;13.02;46.05
69524;BME280;56723;42.694;23.286;2023-03-08T10:01:23;94458.63;;;13.55;44.65
69524;BME280;56723;42.694;23.286;2023-03-08T10:04:32;94447.44;;;13.74;44.59
69524;BME280;56723;42.694;23.286;2023-03-08T10:09:38;94448.66;;;14.11;42.95
69524;BME280;56723;42.694;23.286;2023-03-08T10:12:22;94446.66;;;13.94;42.99
69524;BME280;56723;42.694;23.286;2023-03-08T10:15:08;94440.06;;;13.98;42.95
69524;BME280;56723;42.694;23.286;2023-03-08T10:17:42;94439.03;;;13.92;43.27
69524;BME280;56723;42.694;23.286;2023-03-08T10:20:22;94442.25;;;13.94;42.84
69524;BME280;56723;42.694;23.286;2023-03-08T10:22:56;94437.47;;;14.04;42.90
69524;BME280;56723;42.694;23.286;2023-03-08T10:25:26;94432.84;;;14.06;42.44
69524;BME280;56723;42.694;23.286;2023-03-08T10:27:58;94435.03;;;14.29;41.75
69524;BME280;56723;42.694;23.286;2023-03-08T10:30:35;94439.44;;;14.48;41.54
69524;BME280;56723;42.694;23.286;2023-03-08T10:33:10;94432.84;;;14.59;42.30
69524;BME280;56723;42.694;23.286;2023-03-08T10:35:56;94435.19;;;14.67;41.63
69524;BME280;56723;42.694;23.286;2023-03-08T10:38:30;94424.59;;;14.55;39.30
69524;BME280;56723;42.694;23.286;2023-03-08T10:41:03;94424.41;;;14.31;40.48
69524;BME280;56723;42.694;23.286;2023-03-08T10:43:33;94423.22;;;14.27;40.60
69524;BME280;56723;42.694;23.286;2023-03-08T10:46:10;94427.84;;;14.25;39.83
69524;BME280;56723;42.694;23.286;2023-03-08T10:48:37;94420.63;;;14.46;38.80
69524;BME280;56723;42.694;23.286;2023-03-08T10:51:05;94412.56;;;14.35;41.14
69524;BME280;56723;42.694;23.286;2023-03-08T10:54:00;94418.81;;;14.20;41.11
69524;BME280;56723;42.694;23.286;2023-03-08T10:56:36;94422.63;;;14.11;39.42
69524;BME280;56723;42.694;23.286;2023-03-08T10:59:12;94415.63;;;14.05;39.65
69524;BME280;56723;42.694;23.286;2023-03-08T11:01:53;94407.19;;;13.97;43.41
69524;BME280;56723;42.694;23.286;2023-03-08T11:04:22;94406.59;;;14.08;43.24
69524;BME280;56723;42.694;23.286;2023-03-08T11:06:50;94408.00;;;14.24;40.83
69524;BME280;56723;42.694;23.286;2023-03-08T11:09:37;94397.56;;;14.24;40.12
69524;BME280;56723;42.694;23.286;2023-03-08T11:12:04;94400.38;;;14.29;39.52
69524;BME280;56723;42.694;23.286;2023-03-08T11:14:31;94377.69;;;14.29;37.97
69524;BME280;56723;42.694;23.286;2023-03-08T11:17:37;94387.94;;;14.17;37.79
69524;BME280;56723;42.694;23.286;2023-03-08T11:20:16;94380.56;;;13.88;37.96
69524;BME280;56723;42.694;23.286;2023-03-08T11:23:00;94378.16;;;14.00;40.27
69524;BME280;56723;42.694;23.286;2023-03-08T11:25:37;94366.09;;;14.45;37.38
69524;BME280;56723;42.694;23.286;2023-03-08T11:31:36;94354.41;;;14.54;36.04
69524;BME280;56723;42.694;23.286;2023-03-08T11:37:23;94319.00;;;14.13;36.37
69524;BME280;56723;42.694;23.286;2023-03-08T11:40:00;94348.81;;;14.37;36.17
69524;BME280;56723;42.694;23.286;2023-03-08T11:45:31;94342.53;;;14.71;35.49
69524;BME280;56723;42.694;23.286;2023-03-08T11:50:51;94330.00;;;14.86;35.76
69524;BME280;56723;42.694;23.286;2023-03-08T11:58:47;94322.44;;;15.16;35.08
69524;BME280;56723;42.694;23.286;2023-03-08T12:01:25;94320.19;;;14.88;34.77
69524;BME280;56723;42.694;23.286;2023-03-08T12:03:59;94322.75;;;15.02;35.47
69524;BME280;56723;42.694;23.286;2023-03-08T12:06:36;94318.72;;;15.31;34.13
69524;BME280;56723;42.694;23.286;2023-03-08T12:09:08;94312.41;;;15.45;34.06
69524;BME280;56723;42.694;23.286;2023-03-08T12:11:43;94315.88;;;15.70;33.75
69524;BME280;56723;42.694;23.286;2023-03-08T12:19:43;94311.72;;;16.06;33.43
69524;BME280;56723;42.694;23.286;2023-03-08T12:25:29;94324.75;;;16.31;32.77
69524;BME280;56723;42.694;23.286;2023-03-08T12:28:05;94306.00;;;16.15;33.03
69524;BME280;56723;42.694;23.286;2023-03-08T12:31:00;94307.94;;;16.02;32.86
69524;BME280;56723;42.694;23.286;2023-03-08T12:33:30;94309.56;;;15.78;33.16
69524;BME280;56723;42.694;23.286;2023-03-08T12:36:01;94304.13;;;15.54;33.70
69524;BME280;56723;42.694;23.286;2023-03-08T12:41:04;94310.44;;;15.72;33.67
69524;BME280;56723;42.694;23.286;2023-03-08T12:43:35;94299.22;;;15.65;33.24
69524;BME280;56723;42.694;23.286;2023-03-08T12:46:10;94299.50;;;15.56;33.16
69524;BME280;56723;42.694;23.286;2023-03-08T12:56:13;94290.13;;;15.42;33.33
69524;BME280;56723;42.694;23.286;2023-03-08T12:58:52;94288.69;;;15.46;33.33
69524;BME280;56723;42.694;23.286;2023-03-08T13:03:57;94288.00;;;16.07;32.39
69524;BME280;56723;42.694;23.286;2023-03-08T13:22:59;94264.53;;;16.55;32.66
69524;BME280;56723;42.694;23.286;2023-03-08T13:28:22;94271.75;;;16.90;31.31
69524;BME280;56723;42.694;23.286;2023-03-08T13:31:19;94262.50;;;17.06;30.85
69524;BME280;56723;42.694;23.286;2023-03-08T13:33:52;94271.84;;;17.13;30.37
69524;BME280;56723;42.694;23.286;2023-03-08T13:36:28;94266.72;;;17.07;30.59
69524;BME280;56723;42.694;23.286;2023-03-08T13:41:40;94260.84;;;17.35;30.32
69524;BME280;56723;42.694;23.286;2023-03-08T13:44:25;94266.72;;;17.60;30.16
69524;BME280;56723;42.694;23.286;2023-03-08T13:47:00;94260.75;;;17.41;30.13
69524;BME280;56723;42.694;23.286;2023-03-08T13:49:31;94263.69;;;17.33;30.38
69524;BME280;56723;42.694;23.286;2023-03-08T13:52:02;94262.75;;;17.27;30.20
69524;BME280;56723;42.694;23.286;2023-03-08T13:54:33;94270.00;;;17.02;30.58
69524;BME280;56723;42.694;23.286;2023-03-08T13:57:04;94274.72;;;16.27;31.73
69524;BME280;56723;42.694;23.286;2023-03-08T13:59:32;94256.06;;;16.23;32.73
69524;BME280;56723;42.694;23.286;2023-03-08T14:02:01;94261.81;;;16.14;32.11
69524;BME280;56723;42.694;23.286;2023-03-08T14:04:29;94263.47;;;16.08;32.48
69524;BME280;56723;42.694;23.286;2023-03-08T14:06:58;94261.31;;;15.80;32.99
69524;BME280;56723;42.694;23.286;2023-03-08T14:09:26;94262.50;;;15.35;33.71
69524;BME280;56723;42.694;23.286;2023-03-08T14:12:03;94258.06;;;15.04;34.49
69524;BME280;56723;42.694;23.286;2023-03-08T14:14:36;94253.03;;;15.09;34.53
69524;BME280;56723;42.694;23.286;2023-03-08T14:17:04;94265.09;;;15.03;34.63
69524;BME280;56723;42.694;23.286;2023-03-08T14:19:34;94266.59;;;14.93;35.14
69524;BME280;56723;42.694;23.286;2023-03-08T14:22:13;94266.38;;;14.56;35.95
69524;BME280;56723;42.694;23.286;2023-03-08T14:24:54;94261.06;;;14.25;36.35
69524;BME280;56723;42.694;23.286;2023-03-08T14:27:36;94272.09;;;14.27;36.82
69524;BME280;56723;42.694;23.286;2023-03-08T14:35:24;94262.25;;;14.29;36.74
69524;BME280;56723;42.694;23.286;2023-03-08T14:37:52;94258.28;;;14.13;36.72
69524;BME280;56723;42.694;23.286;2023-03-08T14:40:33;94265.88;;;14.21;36.99
69524;BME280;56723;42.694;23.286;2023-03-08T14:43:05;94258.28;;;14.19;36.92
69524;BME280;56723;42.694;23.286;2023-03-08T14:45:34;94269.91;;;14.17;36.74
69524;BME280;56723;42.694;23.286;2023-03-08T14:50:58;94275.16;;;13.97;37.08
69524;BME280;56723;42.694;23.286;2023-03-08T14:53:35;94277.56;;;13.92;36.92
69524;BME280;56723;42.694;23.286;2023-03-08T14:56:11;94280.81;;;13.81;36.93
69524;BME280;56723;42.694;23.286;2023-03-08T14:58:40;94279.41;;;13.78;37.05
69524;BME280;56723;42.694;23.286;2023-03-08T15:01:07;94271.63;;;13.72;37.32
69524;BME280;56723;42.694;23.286;2023-03-08T15:03:34;94279.03;;;13.68;37.57
69524;BME280;56723;42.694;23.286;2023-03-08T15:06:09;94265.97;;;13.75;37.71
69524;BME280;56723;42.694;23.286;2023-03-08T15:08:37;94278.19;;;13.81;37.54
69524;BME280;56723;42.694;23.286;2023-03-08T15:11:05;94278.41;;;13.79;37.63
69524;BME280;56723;42.694;23.286;2023-03-08T15:13:32;94272.63;;;13.71;38.07
69524;BME280;56723;42.694;23.286;2023-03-08T15:15:59;94265.41;;;13.60;38.13
69524;BME280;56723;42.694;23.286;2023-03-08T15:18:26;94264.00;;;13.64;38.22
69524;BME280;56723;42.694;23.286;2023-03-08T15:20:53;94272.81;;;13.63;38.42
69524;BME280;56723;42.694;23.286;2023-03-08T15:23:32;94282.81;;;13.66;38.23
69524;BME280;56723;42.694;23.286;2023-03-08T15:26:03;94284.81;;;13.57;38.33
69524;BME280;56723;42.694;23.286;2023-03-08T15:28:31;94283.22;;;13.63;38.48
69524;BME280;56723;42.694;23.286;2023-03-08T15:30:58;94274.81;;;13.67;38.22
69524;BME280;56723;42.694;23.286;2023-03-08T15:33:25;94276.41;;;13.62;38.15
69524;BME280;56723;42.694;23.286;2023-03-08T15:35:51;94276.41;;;13.55;38.64
69524;BME280;56723;42.694;23.286;2023-03-08T15:38:19;94287.03;;;13.60;38.83
69524;BME280;56723;42.694;23.286;2023-03-08T15:40:47;94289.81;;;13.59;38.46
69524;BME280;56723;42.694;23.286;2023-03-08T15:43:13;94284.81;;;13.64;38.63
69524;BME280;56723;42.694;23.286;2023-03-08T15:45:40;94282.03;;;13.59;38.89
69524;BME280;56723;42.694;23.286;2023-03-08T15:48:16;94291.63;;;13.58;39.11
69524;BME280;56723;42.694;23.286;2023-03-08T15:50:43;94282.84;;;13.52;39.46
69524;BME280;56723;42.694;23.286;2023-03-08T15:53:11;94272.22;;;13.47;39.42
69524;BME280;56723;42.694;23.286;2023-03-08T15:55:42;94270.22;;;13.49;39.73
69524;BME280;56723;42.694;23.286;2023-03-08T15:58:09;94277.81;;;13.44;39.86
69524;BME280;56723;42.694;23.286;2023-03-08T16:00:37;94269.63;;;13.34;40.02